Time;durP1;ratioP1;P1;durP2;ratioP2;P2;SDS_P1;SDS_P2;PMS_P1;PMS_P2;Temp;Humidity;BMP_temperature;BMP_pressure;BME280_temperature;BME280_humidity;BME280_pressure;Samples;Min_cycle;Max_cycle;Signal;HPM_P1;HPM_P2
2021/10/09 00:01:52;;;;;;;4.90;1.60;;;17.50;96.70;;;;;;5092355;28;20167;-81
2021/10/09 00:04:21;;;;;;;6.05;2.20;;;17.50;96.70;;;;;;5096255;28;20155;-82
2021/10/09 00:06:50;;;;;;;7.07;2.17;;;17.50;96.70;;;;;;5083432;28;20040;-81
2021/10/09 00:09:18;;;;;;;2.85;1.70;;;17.50;96.70;;;;;;5097602;28;20105;-82
2021/10/09 00:11:47;;;;;;;3.25;1.52;;;17.40;96.70;;;;;;5091019;28;20054;-83
2021/10/09 00:14:16;;;;;;;5.07;1.88;;;17.40;96.70;;;;;;5091342;28;20521;-82
2021/10/09 00:16:45;;;;;;;2.42;1.50;;;17.40;96.70;;;;;;5098715;28;20105;-82
2021/10/09 00:19:14;;;;;;;4.78;2.00;;;17.40;96.70;;;;;;5097042;28;20150;-81
2021/10/09 00:21:44;;;;;;;3.60;1.90;;;17.30;96.70;;;;;;5083821;28;20078;-81
2021/10/09 00:24:13;;;;;;;3.97;1.90;;;17.30;96.70;;;;;;5089578;28;20524;-82
2021/10/09 00:26:42;;;;;;;5.15;2.45;;;17.30;96.70;;;;;;5090022;28;20048;-81
2021/10/09 00:29:10;;;;;;;6.57;2.10;;;17.30;96.70;;;;;;5074222;28;20093;-81
2021/10/09 00:31:40;;;;;;;4.10;1.92;;;17.30;96.70;;;;;;5086713;28;20145;-82
2021/10/09 00:34:08;;;;;;;4.15;2.00;;;17.30;96.70;;;;;;5091657;28;20052;-80
2021/10/09 00:36:37;;;;;;;5.38;1.83;;;17.30;96.70;;;;;;5096309;28;20139;-82
2021/10/09 00:39:05;;;;;;;6.57;2.13;;;17.30;96.70;;;;;;5094117;28;20085;-81
2021/10/09 00:41:34;;;;;;;4.72;1.50;;;17.30;96.70;;;;;;5093215;28;20050;-82
2021/10/09 00:44:11;;;;;;;3.58;2.25;;;17.20;96.70;;;;;;5094725;28;20062;-82
2021/10/09 00:46:44;;;;;;;3.83;1.85;;;17.30;96.70;;;;;;5096602;28;20497;-81
2021/10/09 00:49:15;;;;;;;2.08;1.77;;;17.30;96.70;;;;;;5081238;28;20050;-82
2021/10/09 00:51:44;;;;;;;3.55;1.85;;;17.20;96.70;;;;;;5092560;28;20040;-81
2021/10/09 00:54:14;;;;;;;4.07;1.80;;;17.20;96.70;;;;;;5095102;28;20048;-82
2021/10/09 00:56:44;;;;;;;6.07;2.40;;;17.20;96.70;;;;;;5099215;28;20052;-81
2021/10/09 00:59:14;;;;;;;5.57;2.17;;;17.20;96.70;;;;;;5093140;28;20130;-81
2021/10/09 01:01:43;;;;;;;2.90;1.75;;;17.20;96.70;;;;;;5090067;28;20124;-82
2021/10/09 01:04:12;;;;;;;4.57;2.17;;;17.20;96.70;;;;;;5087777;28;20048;-80
2021/10/09 01:06:41;;;;;;;3.88;1.95;;;17.20;96.70;;;;;;5092551;28;20131;-82
2021/10/09 01:09:12;;;;;;;3.00;1.95;;;17.10;96.70;;;;;;5079283;28;20075;-81
2021/10/09 01:11:44;;;;;;;4.82;2.03;;;17.10;96.70;;;;;;5091311;28;20051;-79
2021/10/09 01:14:12;;;;;;;4.60;2.05;;;17.10;96.70;;;;;;5089221;28;20071;-79
2021/10/09 01:16:40;;;;;;;8.77;3.10;;;17.00;96.70;;;;;;5088356;28;20065;-80
2021/10/09 01:19:10;;;;;;;2.50;1.83;;;17.00;96.70;;;;;;5091191;28;20444;-79
2021/10/09 01:21:45;;;;;;;5.30;2.22;;;17.00;96.70;;;;;;5094878;28;20040;-80
2021/10/09 01:24:13;;;;;;;3.75;1.80;;;17.00;96.70;;;;;;5091856;28;20519;-80
2021/10/09 01:26:46;;;;;;;4.65;1.88;;;17.00;96.70;;;;;;5093083;28;20097;-80
2021/10/09 01:29:18;;;;;;;3.60;1.70;;;17.00;96.70;;;;;;5087621;28;20066;-79
2021/10/09 01:31:50;;;;;;;3.78;2.00;;;17.00;96.70;;;;;;5075482;28;20233;-79
2021/10/09 01:34:23;;;;;;;6.80;1.92;;;17.00;96.70;;;;;;5091286;28;20044;-79
2021/10/09 01:37:02;;;;;;;4.40;2.28;;;16.90;96.70;;;;;;5092209;28;20050;-80
2021/10/09 01:39:40;;;;;;;3.17;1.90;;;16.90;96.70;;;;;;5089000;28;20055;-80
2021/10/09 01:42:08;;;;;;;3.45;2.05;;;16.90;96.70;;;;;;5084805;28;20056;-80
2021/10/09 01:44:37;;;;;;;5.78;2.05;;;16.90;96.70;;;;;;5073885;28;20036;-79
2021/10/09 01:47:05;;;;;;;5.70;1.98;;;16.90;96.70;;;;;;5094728;28;20134;-80
2021/10/09 01:49:37;;;;;;;4.53;2.38;;;16.90;96.70;;;;;;5096814;28;20496;-79
2021/10/09 01:52:11;;;;;;;4.43;2.33;;;16.90;96.70;;;;;;5087241;28;20142;-79
2021/10/09 01:54:39;;;;;;;4.68;2.35;;;16.90;96.70;;;;;;5088019;28;20056;-81
2021/10/09 01:57:08;;;;;;;5.78;2.20;;;17.00;96.70;;;;;;5089307;28;20386;-79
2021/10/09 01:59:36;;;;;;;5.45;1.80;;;16.90;96.70;;;;;;5069645;28;20510;-81
2021/10/09 02:02:13;;;;;;;4.65;2.40;;;16.90;96.70;;;;;;5095556;28;20040;-80
2021/10/09 02:04:41;;;;;;;2.40;1.92;;;16.90;96.70;;;;;;5089480;28;20113;-79
2021/10/09 02:07:18;;;;;;;5.85;2.30;;;16.90;96.70;;;;;;5086841;28;20044;-80
2021/10/09 02:09:47;;;;;;;4.25;2.05;;;16.90;96.70;;;;;;5079568;28;20047;-79
2021/10/09 02:12:15;;;;;;;2.85;1.80;;;16.90;96.70;;;;;;5082809;28;20131;-80
2021/10/09 02:15:08;;;;;;;5.80;1.95;;;16.90;96.70;;;;;;5076160;28;20047;-80
2021/10/09 02:25:58;;;;;;;6.88;1.92;;;16.80;96.70;;;;;;5093776;28;20071;-80
2021/10/09 02:28:27;;;;;;;5.68;2.35;;;16.80;96.70;;;;;;5091181;28;20464;-80
2021/10/09 02:30:55;;;;;;;3.92;2.63;;;16.80;96.70;;;;;;5089007;28;20043;-80
2021/10/09 02:33:27;;;;;;;5.70;2.30;;;16.80;96.70;;;;;;5087279;28;20040;-80
2021/10/09 02:36:01;;;;;;;6.30;2.33;;;16.80;96.70;;;;;;5084695;28;20662;-80
2021/10/09 02:38:31;;;;;;;3.97;2.17;;;16.80;96.70;;;;;;5076703;28;20646;-79
2021/10/09 02:40:59;;;;;;;3.22;2.17;;;16.70;96.70;;;;;;5081685;28;20043;-80
2021/10/09 02:43:27;;;;;;;4.50;1.75;;;16.70;96.70;;;;;;5081375;28;20089;-79
2021/10/09 02:45:56;;;;;;;4.60;2.28;;;16.70;96.70;;;;;;5092800;28;20058;-79
2021/10/09 02:48:30;;;;;;;3.88;1.85;;;16.70;96.70;;;;;;5070596;28;20039;-80
2021/10/09 02:50:58;;;;;;;5.18;2.33;;;16.70;96.70;;;;;;5092967;28;20164;-79
2021/10/09 02:53:28;;;;;;;5.47;2.30;;;16.70;96.70;;;;;;5089144;28;20152;-80
2021/10/09 02:55:58;;;;;;;5.32;2.15;;;16.70;96.70;;;;;;5089233;28;20501;-80
2021/10/09 02:58:30;;;;;;;6.85;2.40;;;16.60;96.70;;;;;;5076391;28;20032;-81
2021/10/09 03:01:01;;;;;;;3.47;2.10;;;16.60;96.70;;;;;;5073214;28;20036;-80
2021/10/09 03:03:29;;;;;;;5.43;2.70;;;16.60;96.70;;;;;;5080121;28;20759;-79
2021/10/09 03:05:57;;;;;;;4.68;2.10;;;16.60;96.70;;;;;;5081005;28;20042;-80
2021/10/09 03:08:26;;;;;;;7.55;2.40;;;16.60;96.70;;;;;;5085677;28;20500;-80
2021/10/09 03:10:54;;;;;;;4.65;2.10;;;16.50;96.70;;;;;;5089830;28;20046;-79
2021/10/09 03:13:24;;;;;;;4.80;2.13;;;16.50;96.70;;;;;;5087462;28;20143;-80
2021/10/09 03:15:52;;;;;;;5.85;2.30;;;16.50;96.70;;;;;;5083902;28;20141;-79
2021/10/09 03:18:20;;;;;;;4.10;2.25;;;16.50;96.70;;;;;;5076812;28;20089;-80
2021/10/09 03:20:49;;;;;;;4.50;2.30;;;16.50;96.70;;;;;;5086859;28;20104;-79
2021/10/09 03:23:17;;;;;;;5.07;2.65;;;16.50;96.70;;;;;;5104561;27;20421;-79
2021/10/09 03:25:45;;;;;;;4.25;2.28;;;16.50;96.70;;;;;;5087231;28;20040;-80
2021/10/09 03:28:18;;;;;;;6.93;2.55;;;16.50;96.70;;;;;;5092054;28;20097;-79
2021/10/09 03:30:49;;;;;;;6.20;2.47;;;16.50;96.70;;;;;;5092185;28;20039;-79
2021/10/09 03:33:17;;;;;;;5.47;2.60;;;16.50;96.70;;;;;;5088468;28;20047;-80
2021/10/09 03:35:46;;;;;;;4.68;2.45;;;16.50;96.70;;;;;;5078379;28;20045;-79
2021/10/09 03:38:14;;;;;;;4.00;2.30;;;16.50;96.70;;;;;;5089410;28;20304;-80
2021/10/09 03:40:46;;;;;;;4.45;2.35;;;16.50;96.70;;;;;;5071707;28;20043;-79
2021/10/09 03:43:18;;;;;;;4.22;2.40;;;16.50;96.70;;;;;;5084258;28;20591;-80
2021/10/09 03:46:38;;;;;;;4.20;2.20;;;16.40;96.70;;;;;;5091888;28;20040;-80
2021/10/09 03:48:52;;;;;;;4.95;2.33;;;16.50;96.70;;;;;;5078875;28;20059;-79
2021/10/09 03:54:16;;;;;;;3.30;2.25;;;16.40;96.70;;;;;;5092267;27;20054;-79
2021/10/09 03:56:44;;;;;;;5.53;2.30;;;16.40;96.70;;;;;;5108236;27;20046;-80
2021/10/09 03:59:12;;;;;;;5.82;2.70;;;16.40;96.70;;;;;;5096963;27;20044;-79
2021/10/09 04:01:42;;;;;;;4.32;2.35;;;16.40;96.70;;;;;;5092924;28;20100;-79
2021/10/09 04:04:10;;;;;;;4.60;2.22;;;16.30;96.70;;;;;;5115918;27;20142;-79
2021/10/09 04:06:38;;;;;;;5.82;2.50;;;16.30;96.70;;;;;;5093577;27;20058;-80
2021/10/09 04:09:07;;;;;;;6.10;2.40;;;16.30;96.70;;;;;;5099046;27;20774;-79
2021/10/09 04:11:35;;;;;;;3.97;2.00;;;16.30;96.70;;;;;;5095320;28;20138;-80
2021/10/09 04:14:03;;;;;;;6.10;2.30;;;16.30;96.70;;;;;;5084910;27;20100;-80
2021/10/09 04:16:31;;;;;;;4.85;2.45;;;16.30;96.70;;;;;;5076627;28;20054;-80
2021/10/09 04:19:02;;;;;;;4.20;2.40;;;16.30;96.70;;;;;;5091996;27;20047;-80
2021/10/09 04:21:30;;;;;;;5.55;2.30;;;16.20;96.70;;;;;;5096519;28;20087;-79
2021/10/09 04:23:58;;;;;;;5.78;2.70;;;16.20;96.70;;;;;;5086312;27;20046;-80
2021/10/09 04:26:27;;;;;;;6.15;2.45;;;16.20;96.70;;;;;;5090692;27;20100;-80
2021/10/09 04:28:57;;;;;;;4.05;2.25;;;16.20;96.70;;;;;;5079461;28;20039;-80
2021/10/09 04:31:25;;;;;;;4.32;2.20;;;16.10;96.70;;;;;;5094738;27;20051;-80
2021/10/09 04:33:53;;;;;;;4.82;2.53;;;16.10;96.70;;;;;;5076092;27;20370;-79
2021/10/09 04:36:24;;;;;;;5.45;2.45;;;16.10;96.70;;;;;;5086500;27;20048;-80
2021/10/09 04:38:52;;;;;;;3.78;2.45;;;16.10;96.70;;;;;;5083118;27;20089;-80
2021/10/09 04:41:22;;;;;;;5.38;1.92;;;16.10;96.70;;;;;;5091883;28;20118;-81
2021/10/09 04:43:52;;;;;;;4.38;2.30;;;16.20;96.70;;;;;;5079202;28;20074;-81
2021/10/09 04:46:20;;;;;;;6.78;2.08;;;16.20;96.70;;;;;;5086938;28;20059;-79
2021/10/09 04:48:50;;;;;;;4.40;2.15;;;16.20;96.70;;;;;;5095348;28;20051;-81
2021/10/09 04:51:18;;;;;;;4.72;2.20;;;16.20;96.70;;;;;;5080798;28;20044;-80
2021/10/09 04:53:48;;;;;;;6.22;2.33;;;16.20;96.70;;;;;;5107091;27;20040;-81
2021/10/09 04:56:17;;;;;;;6.35;2.08;;;16.20;96.70;;;;;;5057968;28;20093;-81
2021/10/09 04:58:46;;;;;;;6.82;2.58;;;16.20;96.70;;;;;;5063931;28;20052;-80
2021/10/09 05:01:14;;;;;;;5.05;2.05;;;16.20;96.70;;;;;;5076531;28;20040;-80
2021/10/09 05:03:43;;;;;;;5.53;2.30;;;16.20;96.70;;;;;;5072974;28;20032;-80
2021/10/09 05:06:11;;;;;;;3.90;2.20;;;16.20;96.70;;;;;;5091561;28;20083;-80
2021/10/09 05:08:40;;;;;;;3.50;2.13;;;16.20;96.70;;;;;;5071162;28;20047;-80
2021/10/09 05:11:10;;;;;;;2.83;1.88;;;16.20;96.70;;;;;;5075546;28;20175;-80
2021/10/09 05:13:39;;;;;;;3.95;2.08;;;16.10;96.70;;;;;;5056575;28;20102;-80
2021/10/09 05:16:07;;;;;;;4.38;2.33;;;16.10;96.70;;;;;;5064944;28;20123;-81
2021/10/09 05:18:36;;;;;;;4.78;2.10;;;16.10;96.70;;;;;;5073813;28;20043;-81
2021/10/09 05:21:07;;;;;;;4.78;2.38;;;16.10;96.70;;;;;;5065769;28;20318;-80
2021/10/09 05:23:37;;;;;;;3.00;2.00;;;16.10;96.70;;;;;;5074780;28;20043;-80
2021/10/09 05:26:06;;;;;;;4.05;1.92;;;16.10;96.70;;;;;;5075615;28;20044;-80
2021/10/09 05:28:47;;;;;;;6.65;2.10;;;16.10;96.70;;;;;;5073263;28;20075;-80
2021/10/09 05:31:28;;;;;;;4.22;2.33;;;16.10;96.70;;;;;;5069105;28;20532;-80
2021/10/09 05:33:59;;;;;;;10.93;2.33;;;16.10;96.70;;;;;;5071172;28;20071;-80
2021/10/09 05:36:31;;;;;;;6.30;2.25;;;16.10;96.70;;;;;;5058976;28;20482;-80
2021/10/09 05:39:00;;;;;;;4.93;2.53;;;16.10;96.70;;;;;;5066792;28;20056;-80
2021/10/09 05:41:29;;;;;;;3.88;2.15;;;16.10;96.70;;;;;;5077243;28;20043;-80
2021/10/09 05:44:17;;;;;;;6.00;2.70;;;16.10;96.70;;;;;;5069422;28;20048;-81
2021/10/09 05:46:46;;;;;;;5.07;2.17;;;16.00;96.70;;;;;;5066667;28;20052;-81
2021/10/09 05:49:17;;;;;;;6.82;2.22;;;16.00;96.70;;;;;;5071610;28;20045;-85
2021/10/09 05:55:08;;;;;;;3.53;2.15;;;16.10;96.70;;;;;;5075357;28;20137;-79
2021/10/09 05:57:47;;;;;;;5.63;1.98;;;16.10;96.70;;;;;;5086346;28;20383;-79
2021/10/09 06:00:48;;;;;;;4.03;2.17;;;16.10;96.70;;;;;;5098965;28;20437;-77
2021/10/09 06:47:51;;;;;;;3.25;2.20;;;16.60;96.70;;;;;;5092127;28;20051;-77
2021/10/09 07:01:22;;;;;;;6.10;2.92;;;16.70;96.70;;;;;;5084387;28;20063;-78
2021/10/09 07:03:50;;;;;;;5.00;2.33;;;16.70;96.70;;;;;;5074108;28;20085;-78
2021/10/09 07:06:22;;;;;;;5.50;2.65;;;16.80;96.70;;;;;;5086197;28;20044;-78
2021/10/09 07:08:59;;;;;;;4.43;2.33;;;16.80;96.70;;;;;;5085292;28;20072;-79
2021/10/09 07:11:54;;;;;;;3.72;2.30;;;16.80;96.70;;;;;;5079203;28;20075;-78
2021/10/09 07:14:22;;;;;;;5.80;2.20;;;16.80;96.70;;;;;;5084251;28;20509;-79
2021/10/09 07:16:51;;;;;;;4.05;1.85;;;16.90;96.70;;;;;;5093545;28;20044;-79
2021/10/09 07:19:19;;;;;;;5.28;2.72;;;16.90;96.70;;;;;;5071697;28;20055;-79
2021/10/09 07:21:49;;;;;;;5.05;2.05;;;16.90;96.70;;;;;;5087977;28;20098;-79
2021/10/09 07:24:39;;;;;;;4.05;1.90;;;17.00;96.70;;;;;;5082030;28;20036;-78
2021/10/09 07:27:08;;;;;;;3.78;1.95;;;17.00;96.70;;;;;;5091937;28;20089;-80
2021/10/09 07:29:36;;;;;;;4.55;1.80;;;17.00;96.70;;;;;;5071993;28;20511;-78
2021/10/09 07:32:06;;;;;;;4.60;2.05;;;17.00;96.70;;;;;;5091772;28;20515;-78
2021/10/09 07:34:34;;;;;;;5.20;2.03;;;17.10;96.70;;;;;;5069907;28;20035;-80
2021/10/09 07:37:04;;;;;;;5.70;2.03;;;17.10;96.70;;;;;;5087269;28;20572;-79
2021/10/09 07:39:32;;;;;;;4.30;2.00;;;17.10;96.70;;;;;;5096673;28;20056;-78
2021/10/09 07:42:02;;;;;;;5.80;2.35;;;17.10;96.70;;;;;;5084139;28;20140;-79
2021/10/09 07:44:30;;;;;;;3.25;1.73;;;17.20;96.70;;;;;;5090686;28;20035;-79
2021/10/09 07:47:01;;;;;;;9.00;2.38;;;17.20;96.70;;;;;;5087597;28;20040;-79
2021/10/09 07:49:29;;;;;;;4.75;1.90;;;17.30;96.70;;;;;;5082909;28;20036;-77
2021/10/09 07:51:58;;;;;;;6.75;2.17;;;17.30;96.70;;;;;;5086984;28;20047;-78
2021/10/09 07:54:28;;;;;;;4.50;2.10;;;17.30;96.70;;;;;;5090462;28;20139;-77
2021/10/09 07:56:56;;;;;;;3.90;1.90;;;17.30;96.70;;;;;;5076110;28;20219;-79
2021/10/09 07:59:24;;;;;;;3.05;1.90;;;17.30;96.70;;;;;;5083969;28;20032;-77
2021/10/09 08:01:52;;;;;;;4.22;2.10;;;17.30;96.70;;;;;;5087541;28;20040;-77
2021/10/09 08:04:21;;;;;;;3.65;1.90;;;17.40;96.70;;;;;;5098461;28;20298;-76
2021/10/09 08:06:49;;;;;;;8.13;2.28;;;17.50;96.70;;;;;;5074418;28;20085;-77
2021/10/09 08:09:17;;;;;;;8.80;2.42;;;17.50;96.70;;;;;;5083044;28;20047;-77
2021/10/09 08:11:47;;;;;;;4.40;2.33;;;17.60;96.70;;;;;;5092729;28;20043;-77
2021/10/09 08:14:15;;;;;;;4.53;2.13;;;17.70;96.70;;;;;;5095724;28;20040;-78
2021/10/09 08:16:44;;;;;;;5.88;2.53;;;17.70;96.70;;;;;;5090534;28;20051;-78
2021/10/09 08:19:12;;;;;;;4.90;2.58;;;17.80;96.70;;;;;;5092310;28;20033;-77
2021/10/09 08:21:41;;;;;;;5.20;2.10;;;17.80;96.70;;;;;;5083942;28;20098;-77
2021/10/09 08:24:24;;;;;;;4.28;2.13;;;17.90;96.70;;;;;;5081531;28;20494;-77
2021/10/09 08:27:21;;;;;;;7.78;2.40;;;17.90;96.70;;;;;;5089943;28;20143;-77
2021/10/09 08:35:48;;;;;;;4.15;2.60;;;17.90;96.70;;;;;;5088061;28;20506;-78
2021/10/09 08:41:04;;;;;;;4.47;2.55;;;17.70;96.70;;;;;;5092733;28;20529;-78
2021/10/09 08:43:33;;;;;;;5.20;2.47;;;17.60;96.70;;;;;;5079708;28;20040;-78
2021/10/09 08:46:02;;;;;;;4.53;2.08;;;17.60;96.70;;;;;;5091750;28;20562;-79
2021/10/09 08:48:40;;;;;;;4.80;2.22;;;17.50;96.70;;;;;;5088660;28;20086;-78
2021/10/09 08:51:08;;;;;;;4.55;2.22;;;17.60;96.70;;;;;;5091102;28;20036;-78
2021/10/09 08:53:39;;;;;;;4.38;2.03;;;17.60;96.70;;;;;;5092972;28;20051;-78
2021/10/09 08:56:08;;;;;;;4.00;2.17;;;17.60;96.70;;;;;;5111933;27;20055;-78
2021/10/09 08:58:42;;;;;;;6.47;3.42;;;17.50;96.70;;;;;;5086221;27;20043;-78
2021/10/09 09:01:24;;;;;;;5.63;3.50;;;17.50;96.70;;;;;;5093745;28;20538;-78
2021/10/09 09:25:16;;;;;;;6.13;2.95;;;18.00;96.70;;;;;;5098725;27;20097;-78
2021/10/09 09:26:50;;;;;;;4.10;1.92;;;18.60;96.70;;;;;;5088734;27;20154;-77
2021/10/09 09:40:36;;;;;;;6.00;1.77;;;19.00;96.70;;;;;;5102237;27;20440;-79
2021/10/09 09:43:05;;;;;;;3.83;1.80;;;19.20;96.70;;;;;;5094069;28;20042;-80
2021/10/09 09:45:33;;;;;;;4.30;1.83;;;19.20;96.70;;;;;;5090976;27;20035;-80
2021/10/09 09:48:07;;;;;;;2.45;1.48;;;19.20;96.70;;;;;;5091152;28;20048;-80
2021/10/09 09:50:37;;;;;;;6.72;2.08;;;19.30;96.70;;;;;;5108070;27;20047;-79
2021/10/09 09:53:06;;;;;;;1.83;1.38;;;19.50;96.70;;;;;;5115913;27;20033;-79
2021/10/09 09:55:35;;;;;;;3.33;1.88;;;19.60;96.70;;;;;;5106173;27;20040;-79
2021/10/09 09:58:23;;;;;;;3.22;1.63;;;19.80;96.70;;;;;;5118246;27;20067;-80
2021/10/09 10:00:56;;;;;;;3.63;1.83;;;19.80;96.70;;;;;;5095435;27;20520;-79
2021/10/09 10:03:29;;;;;;;3.45;1.67;;;19.90;96.70;;;;;;5105856;27;20036;-78
2021/10/09 10:05:58;;;;;;;3.42;2.00;;;20.00;96.40;;;;;;5080583;28;20040;-79
2021/10/09 10:08:27;;;;;;;5.75;2.10;;;20.00;96.20;;;;;;5097013;27;20038;-77
2021/10/09 10:10:56;;;;;;;3.33;1.52;;;20.00;95.90;;;;;;5084738;27;20069;-78
2021/10/09 10:13:28;;;;;;;3.75;1.77;;;20.00;96.30;;;;;;5098821;27;20049;-78
2021/10/09 10:15:57;;;;;;;3.90;1.88;;;20.00;96.50;;;;;;5112919;27;20042;-78
2021/10/09 10:18:54;;;;;;;6.40;1.85;;;20.00;96.60;;;;;;5107869;27;20138;-78
2021/10/09 10:21:47;;;;;;;4.05;2.00;;;20.00;96.60;;;;;;5084776;27;20147;-79
2021/10/09 10:24:54;;;;;;;2.92;1.60;;;20.10;95.20;;;;;;5088128;28;20366;-77
2021/10/09 10:27:37;;;;;;;3.90;1.80;;;20.00;95.20;;;;;;5092470;28;20035;-75
2021/10/09 10:30:26;;;;;;;3.25;1.60;;;20.10;95.70;;;;;;5091781;27;20043;-78
2021/10/09 10:33:38;;;;;;;2.95;1.50;;;20.20;95.40;;;;;;5101259;27;20104;-80
2021/10/09 10:36:11;;;;;;;4.15;1.50;;;20.20;94.60;;;;;;5112037;27;20063;-81
2021/10/09 10:38:46;;;;;;;3.40;1.70;;;20.20;94.50;;;;;;5097366;27;20126;-81
2021/10/09 10:41:19;;;;;;;6.23;2.13;;;20.30;94.60;;;;;;5107193;27;20039;-81
2021/10/09 10:49:21;;;;;;;3.83;1.90;;;20.60;94.10;;;;;;5097277;27;20050;-80
2021/10/09 10:54:38;;;;;;;3.95;1.52;;;20.80;93.70;;;;;;5108228;27;20063;-81
2021/10/09 10:57:17;;;;;;;3.13;1.58;;;20.60;93.70;;;;;;5114038;27;20088;-82
2021/10/09 10:59:55;;;;;;;7.55;1.80;;;20.70;94.20;;;;;;5109805;27;20066;-82
2021/10/09 11:02:28;;;;;;;2.95;1.50;;;20.60;94.00;;;;;;5080280;27;20040;-82
2021/10/09 11:04:58;;;;;;;4.50;2.05;;;20.60;94.20;;;;;;5090454;27;20114;-81
2021/10/09 11:07:30;;;;;;;3.65;1.67;;;20.70;94.30;;;;;;5105208;27;20047;-82
2021/10/09 11:10:04;;;;;;;3.83;1.60;;;20.90;94.00;;;;;;5114716;27;20035;-81
2021/10/09 11:12:34;;;;;;;3.08;1.50;;;20.90;93.20;;;;;;5100814;27;20115;-84
2021/10/09 11:15:07;;;;;;;4.18;1.25;;;20.90;93.40;;;;;;5098849;27;20145;-85
2021/10/09 11:17:37;;;;;;;6.40;1.67;;;20.90;93.70;;;;;;5098488;27;20105;-83
2021/10/09 11:20:07;;;;;;;2.90;1.73;;;20.90;93.50;;;;;;5079402;28;20059;-82
2021/10/09 11:22:43;;;;;;;4.57;1.75;;;20.90;93.80;;;;;;5101948;28;20035;-82
2021/10/09 11:25:22;;;;;;;4.78;1.52;;;21.10;93.30;;;;;;5085280;27;20048;-83
2021/10/09 11:27:51;;;;;;;4.38;1.80;;;21.40;93.50;;;;;;5096030;28;20137;-82
2021/10/09 11:30:20;;;;;;;3.22;1.98;;;21.60;93.90;;;;;;5082962;28;20035;-83
2021/10/09 11:32:48;;;;;;;4.15;1.63;;;21.80;93.40;;;;;;5096922;28;20043;-83
2021/10/09 11:35:27;;;;;;;4.68;1.95;;;21.50;92.80;;;;;;5072540;28;20036;-84
2021/10/09 11:37:58;;;;;;;3.90;1.77;;;20.90;92.80;;;;;;5094528;28;20050;-86
2021/10/09 11:40:32;;;;;;;3.97;1.77;;;20.70;93.30;;;;;;5098511;28;20059;-84
2021/10/09 11:43:21;;;;;;;6.10;1.75;;;20.70;93.20;;;;;;5081135;28;20055;-82
2021/10/09 11:46:04;;;;;;;3.65;1.75;;;20.80;93.10;;;;;;5109755;28;20032;-82
2021/10/09 11:56:47;;;;;;;4.47;1.70;;;21.30;92.90;;;;;;5103859;28;20131;-85
2021/10/09 11:59:34;;;;;;;2.22;1.80;;;21.30;92.30;;;;;;5074446;28;20090;-84
2021/10/09 12:02:02;;;;;;;;;;;21.10;92.70;;;;;;5096818;28;20039;-83
2021/10/09 12:04:30;;;;;;;4.28;1.73;;;21.10;92.90;;;;;;5092347;28;19931;-82
2021/10/09 12:07:07;;;;;;;4.90;1.60;;;21.20;92.40;;;;;;5096493;27;20067;-82
2021/10/09 12:09:39;;;;;;;6.03;1.83;;;21.20;92.90;;;;;;5098483;28;20031;-82
2021/10/09 12:12:19;;;;;;;8.27;1.77;;;21.30;92.60;;;;;;5090240;27;20051;-82
2021/10/09 12:14:49;;;;;;;3.55;1.60;;;21.50;92.70;;;;;;5118230;27;20046;-82
2021/10/09 12:17:18;;;;;;;3.03;1.73;;;21.40;93.00;;;;;;5091108;28;20370;-82
2021/10/09 12:19:56;;;;;;;5.70;1.88;;;21.30;93.60;;;;;;5097489;27;20043;-81
2021/10/09 12:22:25;;;;;;;3.75;1.80;;;21.30;92.70;;;;;;5094097;27;20042;-81
2021/10/09 12:24:56;;;;;;;4.22;1.73;;;21.40;93.10;;;;;;5112108;27;20035;-81
2021/10/09 12:27:26;;;;;;;3.33;1.75;;;21.40;92.80;;;;;;5115743;27;20053;-81
2021/10/09 12:30:01;;;;;;;3.20;1.70;;;21.40;92.40;;;;;;5084709;28;20047;-81
2021/10/09 12:32:38;;;;;;;4.80;1.85;;;21.40;93.30;;;;;;5095852;28;20043;-81
2021/10/09 12:35:14;;;;;;;3.80;1.70;;;21.60;93.00;;;;;;5091212;28;20042;-81
2021/10/09 12:37:55;;;;;;;;;;;21.60;93.30;;;;;;5097185;27;20047;-81
2021/10/09 12:40:27;;;;;;;3.47;2.05;;;21.70;93.40;;;;;;5098704;27;19930;-81
2021/10/09 12:42:58;;;;;;;4.20;1.58;;;21.70;93.40;;;;;;5091267;27;20069;-81
2021/10/09 12:45:27;;;;;;;4.85;1.90;;;21.50;93.10;;;;;;5094316;28;20196;-81
2021/10/09 12:47:59;;;;;;;4.32;2.20;;;21.50;93.90;;;;;;5085885;27;20114;-81
2021/10/09 12:50:30;;;;;;;3.55;1.85;;;21.80;94.00;;;;;;5102382;27;20061;-82
2021/10/09 12:52:58;;;;;;;6.78;2.30;;;21.80;93.40;;;;;;5075520;27;20047;-87
2021/10/09 12:55:33;;;;;;;6.35;2.15;;;21.60;92.90;;;;;;5092594;28;20105;-81
2021/10/09 12:58:05;;;;;;;3.67;2.25;;;21.50;93.30;;;;;;5081586;28;20229;-81
2021/10/09 13:00:35;;;;;;;5.63;2.60;;;21.50;93.50;;;;;;5091126;28;20131;-81
2021/10/09 13:03:04;;;;;;;4.35;2.00;;;21.60;93.80;;;;;;5093535;28;20051;-82
2021/10/09 13:05:33;;;;;;;5.50;2.15;;;21.70;93.50;;;;;;5092892;28;20093;-82
2021/10/09 13:08:05;;;;;;;6.53;2.20;;;21.70;93.30;;;;;;5094549;28;20043;-81
2021/10/09 13:10:40;;;;;;;4.57;1.98;;;21.70;93.20;;;;;;5093223;28;20040;-82
2021/10/09 13:13:09;;;;;;;4.43;2.40;;;21.70;93.20;;;;;;5088275;28;20088;-80
2021/10/09 13:15:38;;;;;;;6.60;2.67;;;21.90;93.00;;;;;;5086781;28;20043;-80
2021/10/09 13:18:06;;;;;;;3.70;2.20;;;21.80;92.70;;;;;;5090343;28;20043;-81
2021/10/09 13:20:37;;;;;;;5.90;2.38;;;21.70;92.50;;;;;;5091115;28;20043;-79
2021/10/09 13:23:06;;;;;;;6.72;2.00;;;21.70;92.50;;;;;;5093274;28;20126;-80
2021/10/09 13:25:40;;;;;;;5.20;2.08;;;21.80;93.20;;;;;;5085488;28;20048;-81
2021/10/09 13:28:09;;;;;;;3.13;2.08;;;21.80;92.20;;;;;;5091552;28;20131;-80
2021/10/09 13:30:38;;;;;;;3.25;2.30;;;21.90;92.40;;;;;;5080761;28;20571;-80
2021/10/09 13:33:06;;;;;;;6.20;2.25;;;21.90;92.40;;;;;;5077556;28;20048;-80
2021/10/09 13:35:35;;;;;;;8.32;6.30;;;22.00;92.10;;;;;;5096225;28;20066;-80
2021/10/09 13:38:04;;;;;;;8.70;4.68;;;22.00;91.90;;;;;;5092412;28;20052;-79
2021/10/09 13:40:33;;;;;;;7.97;2.22;;;22.10;92.10;;;;;;5071621;28;20071;-79
2021/10/09 13:43:02;;;;;;;5.82;2.30;;;22.10;91.80;;;;;;5096206;28;20036;-85
2021/10/09 13:45:31;;;;;;;4.93;2.17;;;22.10;91.50;;;;;;5084370;28;20039;-86
2021/10/09 13:48:00;;;;;;;4.38;2.30;;;22.10;91.50;;;;;;5098241;27;20047;-86
2021/10/09 13:50:33;;;;;;;4.72;1.73;;;22.20;91.10;;;;;;5097326;28;20063;-87
2021/10/09 13:53:02;;;;;;;4.40;2.30;;;22.10;90.80;;;;;;5094467;28;20043;-80
2021/10/09 13:55:31;;;;;;;8.63;2.38;;;22.00;91.10;;;;;;5085223;28;20049;-81
2021/10/09 13:57:59;;;;;;;3.55;2.10;;;22.00;90.70;;;;;;5085675;28;20036;-81
2021/10/09 14:00:30;;;;;;;6.30;2.58;;;21.90;90.90;;;;;;5097547;28;20047;-81
2021/10/09 14:02:58;;;;;;;4.55;2.08;;;21.80;91.20;;;;;;5090326;28;20075;-81
2021/10/09 14:05:28;;;;;;;4.50;1.92;;;21.40;90.40;;;;;;5073782;28;20057;-80
2021/10/09 14:07:56;;;;;;;4.95;1.67;;;21.30;91.30;;;;;;5089996;28;20039;-81
2021/10/09 14:10:24;;;;;;;4.18;2.00;;;21.40;91.30;;;;;;5089211;28;20649;-81
2021/10/09 14:12:53;;;;;;;5.40;2.50;;;21.40;90.90;;;;;;5085375;28;20028;-82
2021/10/09 14:15:21;;;;;;;4.90;1.88;;;21.60;90.10;;;;;;5094039;28;20524;-81
2021/10/09 14:17:52;;;;;;;4.18;1.83;;;21.60;89.50;;;;;;5092209;28;20036;-81
2021/10/09 14:20:20;;;;;;;5.35;1.90;;;21.90;89.50;;;;;;5082733;28;20040;-81
2021/10/09 14:22:48;;;;;;;4.65;1.90;;;22.10;89.30;;;;;;5086188;28;20040;-80
2021/10/09 14:25:17;;;;;;;6.35;1.73;;;22.20;87.50;;;;;;5078034;28;20046;-81
2021/10/09 14:27:45;;;;;;;4.22;1.73;;;22.30;86.80;;;;;;5085389;28;20031;-78
2021/10/09 14:30:16;;;;;;;3.13;1.70;;;22.40;86.60;;;;;;5089420;28;20043;-80
2021/10/09 14:32:45;;;;;;;6.50;2.05;;;22.60;85.90;;;;;;5088518;28;20089;-80
2021/10/09 14:35:18;;;;;;;2.08;1.73;;;22.80;85.40;;;;;;5086675;28;20032;-81
2021/10/09 14:37:51;;;;;;;4.85;1.90;;;22.80;84.70;;;;;;5087132;28;20051;-80
2021/10/09 14:40:19;;;;;;;5.57;2.58;;;23.00;84.40;;;;;;5085384;28;20036;-80
2021/10/09 14:42:48;;;;;;;5.78;2.60;;;23.30;83.80;;;;;;5087258;28;20040;-80
2021/10/09 14:45:17;;;;;;;6.07;1.90;;;23.20;83.10;;;;;;5088458;28;20039;-80
2021/10/09 14:51:06;;;;;;;3.45;2.08;;;23.50;82.20;;;;;;4982341;28;20586;-80
2021/10/09 15:18:34;;;;;;;4.82;1.95;;;25.20;77.00;;;;;;4988787;28;20046;-80
2021/10/09 15:21:02;;;;;;;6.20;2.15;;;25.40;76.80;;;;;;4984293;28;20050;-81
2021/10/09 15:23:33;;;;;;;3.22;1.75;;;25.20;77.10;;;;;;4979514;28;20484;-80
2021/10/09 15:26:01;;;;;;;4.38;1.88;;;25.60;76.90;;;;;;4975353;28;20053;-81
2021/10/09 15:28:30;;;;;;;4.80;1.85;;;25.90;76.40;;;;;;5087250;28;20102;-80
2021/10/09 15:31:16;;;;;;;4.20;2.08;;;25.90;76.00;;;;;;5070436;28;20135;-81
2021/10/09 15:33:44;;;;;;;4.93;2.10;;;26.00;75.90;;;;;;5085025;28;20072;-81
2021/10/09 15:36:12;;;;;;;7.30;2.60;;;25.80;75.70;;;;;;5084895;28;20052;-80
2021/10/09 15:38:42;;;;;;;5.38;1.60;;;25.90;75.60;;;;;;5091375;28;20046;-85
2021/10/09 15:41:10;;;;;;;5.15;2.03;;;25.70;75.50;;;;;;5098604;28;20071;-81
2021/10/09 15:43:40;;;;;;;3.60;1.90;;;25.10;76.10;;;;;;5076819;28;20052;-80
2021/10/09 15:46:09;;;;;;;3.03;1.73;;;23.40;79.40;;;;;;5097812;28;20046;-80